Time;durP1;ratioP1;P1;durP2;ratioP2;P2;SDS_P1;SDS_P2;PMS_P1;PMS_P2;Temp;Humidity;BMP_temperature;BMP_pressure;BME280_temperature;BME280_humidity;BME280_pressure;Samples;Min_cycle;Max_cycle;Signal;HPM_P1;HPM_P2
2022/08/02 00:00:50;;;;;;;6.07;1.60;;;18.80;94.70;;;;;;5097968;28;20021;-78
2022/08/02 00:03:16;;;;;;;5.50;1.63;;;18.80;94.90;;;;;;5097670;28;20021;-76
2022/08/02 00:05:42;;;;;;;3.92;1.55;;;18.70;94.90;;;;;;5097840;28;20068;-79
2022/08/02 00:08:07;;;;;;;6.20;1.48;;;18.70;95.00;;;;;;5097739;28;20028;-77
2022/08/02 00:10:33;;;;;;;7.28;1.80;;;18.70;95.10;;;;;;5097304;28;20035;-77
2022/08/02 00:12:58;;;;;;;4.65;1.48;;;18.70;95.20;;;;;;5097745;28;20029;-77
2022/08/02 00:15:25;;;;;;;6.00;1.60;;;18.70;95.30;;;;;;5097472;28;20361;-78
2022/08/02 00:17:50;;;;;;;7.95;1.70;;;18.70;95.40;;;;;;5097674;28;20029;-77
2022/08/02 00:20:16;;;;;;;3.97;1.42;;;18.70;95.40;;;;;;5097192;28;20035;-78
2022/08/02 00:22:42;;;;;;;7.85;1.58;;;18.70;95.50;;;;;;5097238;28;20040;-77
2022/08/02 00:25:08;;;;;;;5.45;1.65;;;18.70;95.60;;;;;;5097521;28;20081;-78
2022/08/02 00:27:33;;;;;;;7.93;2.00;;;18.70;95.70;;;;;;5095472;28;20038;-77
2022/08/02 00:29:59;;;;;;;6.75;1.80;;;18.70;95.80;;;;;;5081095;28;20314;-77
2022/08/02 00:32:24;;;;;;;7.20;1.80;;;18.70;95.90;;;;;;5097257;28;20027;-78
2022/08/02 00:34:50;;;;;;;6.05;1.58;;;18.70;96.00;;;;;;5097388;28;20023;-77
2022/08/02 00:37:16;;;;;;;6.28;1.67;;;18.60;96.20;;;;;;5096521;28;20042;-78
2022/08/02 00:39:42;;;;;;;4.63;1.40;;;18.60;96.30;;;;;;5097166;28;20021;-76
2022/08/02 00:42:08;;;;;;;3.45;1.48;;;18.60;96.40;;;;;;5096680;28;20123;-77
2022/08/02 00:44:34;;;;;;;6.82;1.70;;;18.60;96.50;;;;;;5096862;28;20069;-77
2022/08/02 00:47:00;;;;;;;4.97;1.50;;;18.60;96.70;;;;;;5096825;28;20020;-76
2022/08/02 00:49:26;;;;;;;5.72;1.38;;;18.60;96.80;;;;;;5096854;28;20039;-78
2022/08/02 00:51:52;;;;;;;7.53;1.67;;;18.60;96.90;;;;;;5096545;28;20017;-77
2022/08/02 00:54:17;;;;;;;5.28;1.77;;;18.60;97.00;;;;;;5096626;28;20016;-77
2022/08/02 00:56:43;;;;;;;5.20;1.65;;;18.50;96.90;;;;;;5096302;28;20035;-77
2022/08/02 00:59:08;;;;;;;3.58;1.40;;;18.50;96.80;;;;;;5079414;28;20048;-77
2022/08/02 01:01:37;;;;;;;5.10;1.30;;;18.40;96.50;;;;;;5096343;28;20013;-78
2022/08/02 01:04:05;;;;;;;3.28;1.38;;;18.40;96.50;;;;;;5096713;28;20038;-77
2022/08/02 01:06:32;;;;;;;6.95;1.88;;;18.40;96.30;;;;;;5079047;28;20023;-77
2022/08/02 01:08:58;;;;;;;4.68;1.38;;;18.40;96.20;;;;;;5076546;28;20060;-77
2022/08/02 01:11:24;;;;;;;5.30;1.50;;;18.40;96.10;;;;;;5091644;28;20054;-78
2022/08/02 01:13:50;;;;;;;4.25;1.40;;;18.40;96.00;;;;;;5096353;28;20037;-77
2022/08/02 01:16:22;;;;;;;3.67;1.70;;;18.40;95.90;;;;;;5096707;28;20036;-77
2022/08/02 01:18:53;;;;;;;4.47;1.42;;;18.30;95.70;;;;;;5096122;28;20025;-77
2022/08/02 01:21:47;;;;;;;4.55;1.70;;;18.30;95.60;;;;;;5096267;28;20176;-78
2022/08/02 01:24:42;;;;;;;6.13;1.50;;;18.30;95.50;;;;;;5096453;28;20057;-77
2022/08/02 01:27:49;;;;;;;3.80;1.35;;;18.30;95.60;;;;;;5087269;28;20039;-77
2022/08/02 01:30:16;;;;;;;4.65;1.52;;;18.30;95.60;;;;;;5095740;28;20044;-77
2022/08/02 01:32:47;;;;;;;3.80;1.55;;;18.20;95.60;;;;;;5096100;28;20077;-78
2022/08/02 01:35:19;;;;;;;3.83;1.50;;;18.20;95.60;;;;;;5096135;28;20027;-77
2022/08/02 01:38:05;;;;;;;6.18;1.63;;;18.20;95.70;;;;;;5096141;28;20025;-77
2022/08/02 01:40:34;;;;;;;3.33;1.35;;;18.20;95.70;;;;;;5085906;28;20036;-77
2022/08/02 01:43:01;;;;;;;4.20;1.48;;;18.10;95.80;;;;;;5095945;28;20027;-77
2022/08/02 01:45:31;;;;;;;6.55;1.50;;;18.10;95.90;;;;;;5095965;28;20035;-78
2022/08/02 01:47:59;;;;;;;4.20;1.42;;;18.10;96.00;;;;;;5090583;28;20048;-78
2022/08/02 01:50:32;;;;;;;7.55;1.70;;;18.10;96.10;;;;;;5095848;28;20035;-77
2022/08/02 01:53:01;;;;;;;4.22;1.40;;;18.10;96.20;;;;;;5078373;28;20067;-77
2022/08/02 01:55:48;;;;;;;5.55;1.63;;;18.10;96.30;;;;;;5095331;28;20035;-78
2022/08/02 01:58:18;;;;;;;4.93;1.40;;;18.10;96.30;;;;;;5095794;28;20035;-78
2022/08/02 02:00:44;;;;;;;3.88;1.20;;;18.00;96.40;;;;;;5095644;28;20043;-77
2022/08/02 02:03:17;;;;;;;2.45;1.30;;;18.00;96.50;;;;;;5081700;28;20077;-77
2022/08/02 02:05:46;;;;;;;5.70;1.80;;;18.00;96.60;;;;;;5095937;28;20078;-77
2022/08/02 02:08:13;;;;;;;5.10;1.50;;;18.00;96.70;;;;;;5095815;28;20024;-78
2022/08/02 02:10:41;;;;;;;3.78;1.33;;;17.90;96.70;;;;;;5095615;28;20021;-77
2022/08/02 02:13:11;;;;;;;3.58;1.40;;;18.00;96.90;;;;;;5095992;28;20029;-77
2022/08/02 02:15:42;;;;;;;4.82;1.50;;;17.90;96.90;;;;;;5096020;28;20016;-77
2022/08/02 02:18:11;;;;;;;3.13;1.50;;;17.90;97.00;;;;;;5095621;28;20082;-78
2022/08/02 02:20:37;;;;;;;5.07;1.60;;;17.90;97.10;;;;;;5095971;28;20028;-77
2022/08/02 02:23:02;;;;;;;5.55;1.63;;;17.80;97.10;;;;;;5091176;28;20032;-77
2022/08/02 02:25:28;;;;;;;5.57;1.50;;;17.80;97.20;;;;;;5095246;28;20019;-78
2022/08/02 02:28:05;;;;;;;4.22;1.80;;;17.80;97.30;;;;;;5095567;28;20024;-78
2022/08/02 02:30:32;;;;;;;5.07;1.77;;;17.80;97.40;;;;;;5095773;28;20035;-77
2022/08/02 02:33:01;;;;;;;4.28;1.48;;;17.80;97.50;;;;;;5095474;28;20024;-78
2022/08/02 02:35:32;;;;;;;6.90;1.70;;;17.70;97.50;;;;;;5094150;28;20042;-79
2022/08/02 02:38:01;;;;;;;4.68;1.58;;;17.70;97.60;;;;;;5095354;28;20027;-77
2022/08/02 02:40:28;;;;;;;4.63;1.40;;;17.70;97.70;;;;;;5094994;28;20024;-78
2022/08/02 02:42:56;;;;;;;4.80;1.75;;;17.70;97.90;;;;;;5095494;28;20020;-77
2022/08/02 02:45:22;;;;;;;4.22;1.42;;;17.70;98.00;;;;;;5095544;28;20092;-77
2022/08/02 02:47:49;;;;;;;3.90;1.40;;;17.70;98.00;;;;;;5095138;28;20029;-78
2022/08/02 02:50:16;;;;;;;4.85;1.50;;;17.70;98.00;;;;;;5095144;28;20070;-78
2022/08/02 02:52:42;;;;;;;5.63;1.50;;;17.70;98.00;;;;;;5095402;28;20013;-77
2022/08/02 02:55:09;;;;;;;4.63;1.45;;;17.70;98.10;;;;;;5095111;28;20029;-78
2022/08/02 02:57:36;;;;;;;3.05;1.45;;;17.60;98.10;;;;;;5095388;28;20027;-78
2022/08/02 03:00:05;;;;;;;7.00;1.70;;;17.60;98.10;;;;;;5096000;28;20027;-77
2022/08/02 03:02:32;;;;;;;2.85;1.20;;;17.60;98.20;;;;;;5098800;28;20020;-78
2022/08/02 03:05:01;;;;;;;4.05;1.40;;;17.60;98.20;;;;;;5098971;28;20021;-77
2022/08/02 03:07:27;;;;;;;4.30;1.58;;;17.60;98.30;;;;;;5098774;28;20033;-77
2022/08/02 03:09:53;;;;;;;6.97;1.70;;;17.60;98.40;;;;;;5098168;28;20024;-78
2022/08/02 03:12:19;;;;;;;5.95;1.50;;;17.60;98.30;;;;;;5098566;28;20009;-78
2022/08/02 03:14:45;;;;;;;4.93;1.48;;;17.60;98.30;;;;;;5098758;28;20067;-77
2022/08/02 03:17:10;;;;;;;3.45;1.45;;;17.50;98.00;;;;;;5093749;28;20020;-77
2022/08/02 03:19:36;;;;;;;2.95;1.35;;;17.50;97.80;;;;;;5095733;28;20031;-78
2022/08/02 03:22:02;;;;;;;4.15;1.50;;;17.50;97.60;;;;;;5098318;28;20096;-78
2022/08/02 03:24:27;;;;;;;4.30;1.30;;;17.50;97.30;;;;;;5098410;28;20273;-78
2022/08/02 03:26:53;;;;;;;6.97;1.65;;;17.60;97.20;;;;;;5098443;28;20032;-78
2022/08/02 03:29:18;;;;;;;3.25;1.25;;;17.50;96.90;;;;;;5098239;28;20034;-78
2022/08/02 03:31:45;;;;;;;4.03;1.45;;;17.50;96.80;;;;;;5098654;28;20016;-78
2022/08/02 03:34:10;;;;;;;1.77;1.10;;;17.50;96.70;;;;;;5093176;28;20008;-78
2022/08/02 03:36:37;;;;;;;2.40;1.23;;;17.50;96.50;;;;;;5097083;28;20052;-78
2022/08/02 03:39:04;;;;;;;3.50;1.27;;;17.50;96.40;;;;;;5098062;28;20024;-78
2022/08/02 03:41:30;;;;;;;3.55;1.40;;;17.50;96.30;;;;;;5098188;28;20094;-78
2022/08/02 03:43:57;;;;;;;4.75;1.25;;;17.50;96.20;;;;;;5098148;28;20012;-78
2022/08/02 03:46:24;;;;;;;4.55;1.50;;;17.50;96.10;;;;;;5098239;28;20027;-78
2022/08/02 03:48:51;;;;;;;6.65;1.42;;;17.50;96.10;;;;;;5097956;28;20028;-78
2022/08/02 03:51:18;;;;;;;6.35;1.52;;;17.50;96.10;;;;;;5097879;28;20100;-79
2022/08/02 03:53:44;;;;;;;3.63;1.50;;;17.50;96.20;;;;;;5097558;28;20012;-78
2022/08/02 03:56:10;;;;;;;4.00;1.45;;;17.40;96.20;;;;;;5097591;28;20024;-78
2022/08/02 03:58:36;;;;;;;4.28;1.50;;;17.40;96.30;;;;;;5098054;28;20018;-78
2022/08/02 04:01:01;;;;;;;3.13;1.40;;;17.40;96.40;;;;;;5097655;28;20077;-78
2022/08/02 04:03:27;;;;;;;2.80;1.40;;;17.40;96.50;;;;;;5097326;28;20039;-78
2022/08/02 04:05:54;;;;;;;4.00;1.60;;;17.40;96.70;;;;;;5097732;28;20051;-78
2022/08/02 04:08:19;;;;;;;3.53;1.58;;;17.30;96.80;;;;;;5092882;28;20029;-79
2022/08/02 04:13:32;;;;;;;4.40;1.83;;;17.20;96.90;;;;;;5097436;28;20023;-77
2022/08/02 04:16:09;;;;;;;4.10;1.40;;;17.30;97.10;;;;;;5089645;28;20198;-78
2022/08/02 04:18:40;;;;;;;4.13;1.83;;;17.20;97.10;;;;;;5086706;28;20009;-77
2022/08/02 04:21:08;;;;;;;5.57;1.60;;;17.20;97.20;;;;;;5097398;28;20364;-77
2022/08/02 04:23:36;;;;;;;4.28;1.80;;;17.20;97.20;;;;;;5097015;28;20056;-77
2022/08/02 04:26:03;;;;;;;5.80;1.80;;;17.20;97.30;;;;;;5097267;28;20083;-77
2022/08/02 04:28:30;;;;;;;5.22;1.50;;;17.20;97.40;;;;;;5094164;28;20035;-77
2022/08/02 04:30:57;;;;;;;4.07;1.50;;;17.20;97.80;;;;;;5089059;28;20020;-77
2022/08/02 04:33:23;;;;;;;6.95;1.80;;;17.20;97.50;;;;;;5097272;28;20024;-77
2022/08/02 04:35:49;;;;;;;6.30;1.75;;;17.10;97.60;;;;;;5097168;28;20016;-77
2022/08/02 04:38:15;;;;;;;4.88;1.92;;;17.10;97.60;;;;;;5096443;28;20032;-77
2022/08/02 04:40:54;;;;;;;6.75;1.75;;;17.10;97.70;;;;;;5079267;28;20023;-77
2022/08/02 04:43:20;;;;;;;4.95;1.92;;;17.10;97.90;;;;;;5097107;28;20037;-77
2022/08/02 04:45:48;;;;;;;5.82;2.08;;;17.10;97.90;;;;;;5095294;28;20013;-77
2022/08/02 04:48:14;;;;;;;7.10;2.00;;;17.10;98.00;;;;;;5067244;28;20029;-77
2022/08/02 04:50:40;;;;;;;7.70;2.17;;;17.10;98.10;;;;;;5095090;28;20027;-76
2022/08/02 04:53:05;;;;;;;7.07;2.00;;;17.20;98.30;;;;;;5096431;28;20017;-77
2022/08/02 04:55:31;;;;;;;4.95;1.92;;;17.20;98.40;;;;;;5094846;28;20020;-77
2022/08/02 04:57:57;;;;;;;5.30;2.10;;;17.20;98.50;;;;;;5096432;28;20025;-76
2022/08/02 05:00:24;;;;;;;6.47;2.25;;;17.20;98.60;;;;;;5096534;28;20036;-76
2022/08/02 05:02:51;;;;;;;5.57;2.20;;;17.20;98.70;;;;;;5095971;28;20047;-76
2022/08/02 05:05:17;;;;;;;6.85;2.17;;;17.20;98.80;;;;;;5070890;28;20029;-73
2022/08/02 05:07:42;;;;;;;7.20;2.50;;;17.30;99.00;;;;;;5070207;28;20477;-74
2022/08/02 05:10:08;;;;;;;5.95;2.30;;;17.30;99.10;;;;;;5071343;28;20051;-74
2022/08/02 05:12:34;;;;;;;5.75;2.42;;;17.30;99.30;;;;;;5071067;28;20020;-73
2022/08/02 05:14:59;;;;;;;8.65;2.47;;;17.40;99.90;;;;;;5070600;28;20541;-74
2022/08/02 05:17:25;;;;;;;6.25;2.40;;;17.40;99.70;;;;;;5052465;28;20043;-73
2022/08/02 05:19:50;;;;;;;5.30;2.50;;;17.40;99.80;;;;;;5070430;28;20477;-74
2022/08/02 05:22:16;;;;;;;7.97;3.00;;;17.50;99.90;;;;;;5044748;28;20285;-74
2022/08/02 05:24:42;;;;;;;7.07;3.05;;;17.50;99.90;;;;;;5049199;28;20033;-74
2022/08/02 05:27:07;;;;;;;6.07;2.70;;;17.50;99.90;;;;;;5049167;28;20431;-74
2022/08/02 05:29:33;;;;;;;8.30;3.53;;;17.50;99.90;;;;;;5048337;28;20706;-73
2022/08/02 05:31:58;;;;;;;10.40;3.00;;;17.60;99.90;;;;;;5048140;28;20385;-73
2022/08/02 05:34:24;;;;;;;5.35;3.08;;;17.60;99.90;;;;;;5050118;28;20294;-74
2022/08/02 05:36:49;;;;;;;8.30;3.78;;;17.60;99.90;;;;;;5047544;28;20021;-74
2022/08/02 05:39:15;;;;;;;9.95;4.13;;;17.70;99.90;;;;;;5049144;28;20640;-74
2022/08/02 05:41:41;;;;;;;11.77;3.78;;;17.70;99.90;;;;;;5046990;28;20024;-74
2022/08/02 05:44:06;;;;;;;8.65;4.30;;;17.70;99.90;;;;;;5042973;28;20032;-73
2022/08/02 05:46:32;;;;;;;8.80;4.55;;;17.80;99.90;;;;;;5042635;28;20017;-74
2022/08/02 05:48:58;;;;;;;8.38;4.55;;;17.70;99.90;;;;;;5043992;28;20053;-74
2022/08/02 05:51:43;;;;;;;11.38;4.63;;;17.80;99.90;;;;;;5048590;28;20021;-72
2022/08/02 05:54:30;;;;;;;10.88;5.07;;;17.80;99.90;;;;;;5037436;28;20036;-73
2022/08/02 05:57:03;;;;;;;9.10;4.90;;;17.90;99.90;;;;;;5046645;28;20049;-73
2022/08/02 05:59:54;;;;;;;14.43;5.72;;;17.90;99.90;;;;;;5044050;28;20503;-74
2022/08/02 06:02:42;;;;;;;12.40;5.30;;;18.00;99.90;;;;;;5042245;28;20029;-75
2022/08/02 06:05:15;;;;;;;13.20;5.72;;;18.00;99.90;;;;;;5045551;28;20029;-74
2022/08/02 06:07:42;;;;;;;10.43;5.85;;;18.10;99.90;;;;;;5047415;28;20029;-74
2022/08/02 06:10:12;;;;;;;16.58;6.95;;;18.20;99.90;;;;;;5042439;28;20021;-74
2022/08/02 06:12:50;;;;;;;14.52;6.22;;;18.20;99.90;;;;;;5046898;28;20342;-75
2022/08/02 06:15:18;;;;;;;12.68;6.85;;;18.30;99.90;;;;;;5042530;28;20176;-74
2022/08/02 06:17:44;;;;;;;12.90;6.75;;;18.30;99.90;;;;;;5032562;28;20482;-74
2022/08/02 06:20:14;;;;;;;15.50;7.65;;;18.40;99.90;;;;;;5045583;28;20036;-74
2022/08/02 06:22:42;;;;;;;18.75;8.13;;;18.50;99.90;;;;;;5059226;28;20040;-73
2022/08/02 06:25:09;;;;;;;16.95;8.55;;;18.50;99.90;;;;;;5069200;28;20028;-73
2022/08/02 06:27:35;;;;;;;21.70;9.45;;;18.60;99.90;;;;;;5068793;28;20065;-75
2022/08/02 06:30:02;;;;;;;22.10;10.68;;;18.70;99.90;;;;;;5057502;28;20021;-74
2022/08/02 06:32:27;;;;;;;19.67;10.25;;;18.80;99.90;;;;;;5060794;28;20025;-75
2022/08/02 06:34:53;;;;;;;23.00;11.68;;;18.90;99.90;;;;;;5063587;28;20468;-74
2022/08/02 06:37:25;;;;;;;20.70;11.20;;;18.90;99.90;;;;;;5066139;28;20020;-74
2022/08/02 06:40:02;;;;;;;22.05;12.10;;;19.00;99.90;;;;;;5068914;28;20105;-74
2022/08/02 06:42:55;;;;;;;24.13;11.77;;;19.00;99.90;;;;;;5071047;28;20027;-73
2022/08/02 06:45:21;;;;;;;27.33;12.77;;;19.10;99.90;;;;;;5076252;28;20450;-76
2022/08/02 06:47:46;;;;;;;30.50;15.48;;;19.20;99.90;;;;;;5067062;28;20079;-75
2022/08/02 06:50:12;;;;;;;30.70;16.92;;;19.10;99.90;;;;;;5095543;28;20047;-78
2022/08/02 06:52:38;;;;;;;37.28;18.35;;;19.20;99.90;;;;;;5098059;28;20021;-77
2022/08/02 06:55:05;;;;;;;44.33;20.35;;;19.30;99.90;;;;;;5097227;28;20114;-77
2022/08/02 06:57:31;;;;;;;44.83;21.65;;;19.30;99.90;;;;;;5097837;28;20023;-76
2022/08/02 07:00:00;;;;;;;43.92;22.45;;;19.40;99.90;;;;;;5097974;28;20032;-77
2022/08/02 07:02:26;;;;;;;48.20;24.20;;;19.50;99.90;;;;;;5097855;28;20032;-77
2022/08/02 07:04:51;;;;;;;47.75;25.45;;;19.60;99.90;;;;;;5076763;28;20052;-77
2022/08/02 07:07:17;;;;;;;50.00;25.45;;;19.70;99.90;;;;;;5098467;28;20016;-77
2022/08/02 07:09:43;;;;;;;47.17;26.60;;;19.70;99.90;;;;;;5098430;28;20020;-77
2022/08/02 07:12:08;;;;;;;46.05;25.42;;;19.80;99.90;;;;;;5098431;28;20084;-77
2022/08/02 07:14:34;;;;;;;46.97;26.75;;;19.90;99.90;;;;;;5098693;28;20024;-77
2022/08/02 07:16:59;;;;;;;44.80;25.10;;;19.90;99.90;;;;;;5098251;28;20185;-77
2022/08/02 07:19:25;;;;;;;45.38;25.50;;;20.00;99.90;;;;;;5098210;28;20032;-77
2022/08/02 07:21:50;;;;;;;43.78;23.95;;;20.10;99.90;;;;;;5098260;28;20052;-77
2022/08/02 07:24:16;;;;;;;44.75;26.45;;;20.20;99.90;;;;;;5098399;28;20028;-77
2022/08/02 07:26:42;;;;;;;42.88;25.73;;;20.40;99.90;;;;;;5098534;28;20008;-77
2022/08/02 07:29:07;;;;;;;35.08;22.85;;;20.50;99.90;;;;;;5097976;28;20032;-77
2022/08/02 07:31:33;;;;;;;35.28;22.33;;;20.60;99.90;;;;;;5098330;28;20044;-77
2022/08/02 07:33:58;;;;;;;39.22;22.95;;;20.70;99.90;;;;;;5078282;28;20072;-77
2022/08/02 07:36:24;;;;;;;34.00;23.10;;;20.80;99.90;;;;;;5097659;28;20051;-77
2022/08/02 07:38:50;;;;;;;34.20;23.02;;;20.90;99.90;;;;;;5097873;28;20037;-77
2022/08/02 07:41:15;;;;;;;33.25;23.33;;;21.00;99.90;;;;;;5098336;28;20023;-76
2022/08/02 07:43:41;;;;;;;31.80;22.40;;;21.00;99.90;;;;;;5097995;28;20009;-76
2022/08/02 07:46:07;;;;;;;38.05;23.75;;;21.10;99.90;;;;;;5097055;28;20032;-77
2022/08/02 07:48:32;;;;;;;38.38;25.33;;;21.30;99.90;;;;;;5097433;28;20024;-77
2022/08/02 07:50:58;;;;;;;30.33;20.02;;;21.40;99.90;;;;;;5080356;28;20088;-76
2022/08/02 07:53:23;;;;;;;27.98;18.13;;;21.60;99.90;;;;;;5098065;28;20016;-77
2022/08/02 07:55:50;;;;;;;23.45;15.40;;;21.80;99.90;;;;;;5097577;28;20013;-77
2022/08/02 07:58:15;;;;;;;24.08;16.50;;;21.90;99.90;;;;;;5096389;28;20076;-77
2022/08/02 08:00:42;;;;;;;24.45;15.00;;;22.00;99.90;;;;;;5097939;28;20016;-77
2022/08/02 08:03:08;;;;;;;23.20;14.18;;;22.10;99.90;;;;;;5097562;28;20013;-77
2022/08/02 08:05:33;;;;;;;24.88;12.98;;;22.10;99.90;;;;;;5087566;28;20039;-77
2022/08/02 08:07:59;;;;;;;22.38;12.32;;;22.20;99.90;;;;;;5097442;28;20058;-77
2022/08/02 08:10:24;;;;;;;20.33;11.23;;;22.40;99.90;;;;;;5097550;28;20017;-77
2022/08/02 08:12:50;;;;;;;16.45;9.48;;;22.50;99.90;;;;;;5085145;28;20020;-76
2022/08/02 08:15:16;;;;;;;14.82;9.15;;;22.60;99.90;;;;;;5097198;28;20194;-77
2022/08/02 08:17:41;;;;;;;17.75;9.32;;;22.60;99.90;;;;;;5097415;28;20016;-77
2022/08/02 08:20:07;;;;;;;17.10;10.38;;;22.60;99.90;;;;;;5092964;28;20040;-77
2022/08/02 08:22:33;;;;;;;17.67;10.55;;;22.70;99.90;;;;;;5087438;28;20040;-76
2022/08/02 08:24:58;;;;;;;17.58;10.52;;;22.70;99.90;;;;;;5097809;28;20023;-76
2022/08/02 08:27:24;;;;;;;20.95;11.77;;;22.80;99.90;;;;;;5097475;28;20039;-76
2022/08/02 08:29:50;;;;;;;17.95;11.05;;;22.80;99.90;;;;;;5097426;28;20012;-77
2022/08/02 08:32:15;;;;;;;17.38;10.80;;;22.90;99.90;;;;;;5097421;28;20021;-76
2022/08/02 08:34:41;;;;;;;16.25;11.13;;;23.00;99.90;;;;;;5094834;28;20028;-77
2022/08/02 08:37:07;;;;;;;19.23;11.30;;;23.20;99.90;;;;;;5090076;28;20036;-77
2022/08/02 08:39:32;;;;;;;21.77;11.40;;;23.30;99.90;;;;;;5087440;28;20021;-77
2022/08/02 08:41:58;;;;;;;15.98;9.82;;;23.50;99.90;;;;;;5093202;28;20016;-77
2022/08/02 08:44:26;;;;;;;18.65;10.00;;;23.70;99.90;;;;;;5097226;28;20013;-76
2022/08/02 08:46:52;;;;;;;12.25;8.32;;;23.80;99.90;;;;;;5086336;28;20020;-81
2022/08/02 08:49:29;;;;;;;13.02;8.98;;;23.90;99.90;;;;;;5093054;28;20088;-77
2022/08/02 08:51:57;;;;;;;12.73;7.82;;;24.00;99.90;;;;;;5075545;28;20040;-77
2022/08/02 08:54:26;;;;;;;14.13;7.93;;;24.00;99.90;;;;;;5096787;28;20042;-77
2022/08/02 08:56:54;;;;;;;16.55;8.43;;;24.00;99.90;;;;;;5092908;28;20016;-77
2022/08/02 08:59:20;;;;;;;13.90;8.88;;;24.00;99.90;;;;;;5094997;28;20067;-77
2022/08/02 09:01:47;;;;;;;15.82;8.68;;;24.00;99.90;;;;;;5096519;28;20012;-76
2022/08/02 09:04:12;;;;;;;12.70;8.40;;;24.00;99.90;;;;;;5084152;28;20017;-77
2022/08/02 09:06:39;;;;;;;13.82;8.07;;;24.00;99.90;;;;;;5090559;28;20052;-77
2022/08/02 09:09:04;;;;;;;9.45;6.90;;;24.00;99.90;;;;;;5089731;28;20083;-77
2022/08/02 09:11:30;;;;;;;12.45;7.78;;;24.00;99.90;;;;;;5096320;28;20009;-76
2022/08/02 09:13:58;;;;;;;13.45;7.30;;;24.10;99.90;;;;;;5096652;28;20033;-77
2022/08/02 09:16:42;;;;;;;10.77;6.18;;;24.10;99.90;;;;;;5095930;28;20043;-77
2022/08/02 09:19:23;;;;;;;14.15;6.75;;;24.20;99.90;;;;;;5096494;28;20084;-77
2022/08/02 09:22:10;;;;;;;14.07;7.53;;;24.30;99.90;;;;;;5095994;28;20070;-78
2022/08/02 09:24:50;;;;;;;12.10;6.80;;;24.30;99.90;;;;;;5096535;28;20020;-77
2022/08/02 09:27:20;;;;;;;14.95;6.15;;;24.30;99.90;;;;;;5096256;28;20036;-76
2022/08/02 09:29:48;;;;;;;12.13;6.88;;;24.30;99.90;;;;;;5096066;28;20043;-77
2022/08/02 09:32:15;;;;;;;15.45;9.15;;;24.50;99.90;;;;;;5087990;28;20025;-77
2022/08/02 09:34:46;;;;;;;13.10;7.88;;;24.50;99.90;;;;;;5096024;28;20013;-77
2022/08/02 09:37:29;;;;;;;12.77;8.00;;;24.50;99.90;;;;;;5096244;28;20012;-77
2022/08/02 09:39:59;;;;;;;12.90;7.50;;;24.50;99.90;;;;;;5089359;28;20021;-78
2022/08/02 09:42:25;;;;;;;12.98;7.28;;;24.50;99.90;;;;;;5095736;28;20040;-77
2022/08/02 09:44:59;;;;;;;11.07;7.15;;;24.50;99.90;;;;;;5070783;28;20036;-77
2022/08/02 09:47:26;;;;;;;14.32;8.27;;;24.60;99.90;;;;;;5095032;28;20080;-77
2022/08/02 09:49:57;;;;;;;12.05;7.32;;;24.70;99.90;;;;;;5095923;28;20021;-77
2022/08/02 09:52:31;;;;;;;10.40;7.20;;;24.70;99.90;;;;;;5078592;28;20013;-77
2022/08/02 09:55:04;;;;;;;14.70;8.10;;;24.60;99.90;;;;;;5095012;28;20092;-76
2022/08/02 09:57:32;;;;;;;15.82;8.77;;;24.70;99.90;;;;;;5095755;28;20021;-76
2022/08/02 09:59:58;;;;;;;16.77;8.52;;;24.70;99.90;;;;;;5091749;28;20031;-76
2022/08/02 10:02:25;;;;;;;18.27;8.70;;;24.80;99.90;;;;;;5095648;28;20009;-76
2022/08/02 10:04:51;;;;;;;13.57;8.32;;;24.90;99.90;;;;;;5095552;28;20016;-78
2022/08/02 10:07:17;;;;;;;16.48;9.13;;;25.00;99.90;;;;;;5085448;28;20047;-77
2022/08/02 10:09:45;;;;;;;17.73;9.43;;;25.00;99.50;;;;;;5092349;28;20020;-77
2022/08/02 10:12:11;;;;;;;14.20;9.10;;;25.00;99.30;;;;;;5099838;28;20021;-77
2022/08/02 10:14:37;;;;;;;13.60;8.30;;;25.10;99.60;;;;;;5099459;28;20035;-77
2022/08/02 10:17:04;;;;;;;11.60;8.15;;;25.10;99.10;;;;;;5099515;28;20084;-77
2022/08/02 10:19:30;;;;;;;14.18;8.75;;;25.20;98.70;;;;;;5100117;28;20013;-77
2022/08/02 10:22:09;;;;;;;15.20;7.75;;;25.20;98.60;;;;;;5099121;28;20035;-77
2022/08/02 10:24:38;;;;;;;15.27;7.20;;;25.30;98.80;;;;;;5100306;28;20039;-77
2022/08/02 10:27:25;;;;;;;9.20;6.53;;;25.40;98.00;;;;;;5099703;28;20050;-78
2022/08/02 10:29:53;;;;;;;13.57;6.57;;;25.40;97.40;;;;;;5099055;28;20052;-77
2022/08/02 10:32:33;;;;;;;17.30;6.07;;;25.50;96.00;;;;;;5099781;28;20088;-77
2022/08/02 10:35:21;;;;;;;16.30;7.97;;;25.60;96.10;;;;;;5099568;28;20113;-77
2022/08/02 10:37:50;;;;;;;15.48;6.32;;;25.80;95.80;;;;;;5099976;28;20021;-77
2022/08/02 10:40:27;;;;;;;9.60;6.93;;;25.80;95.40;;;;;;5099746;28;20034;-77
2022/08/02 10:42:58;;;;;;;13.93;6.72;;;25.90;95.20;;;;;;5099657;28;20017;-76
2022/08/02 10:45:24;;;;;;;12.38;7.60;;;26.00;94.40;;;;;;5099410;28;20128;-76
2022/08/02 10:48:13;;;;;;;11.93;7.50;;;26.00;94.00;;;;;;5099422;28;20032;-77
2022/08/02 10:50:44;;;;;;;17.50;7.88;;;26.00;93.80;;;;;;5099337;28;20016;-77
2022/08/02 10:53:29;;;;;;;11.73;6.93;;;26.00;93.90;;;;;;5093354;28;20083;-76
2022/08/02 10:56:01;;;;;;;12.07;6.60;;;26.10;93.60;;;;;;5095499;28;20020;-76
2022/08/02 10:58:31;;;;;;;9.73;6.30;;;26.10;93.40;;;;;;5099195;28;21287;-76
2022/08/02 11:01:31;;;;;;;10.43;7.05;;;26.20;93.00;;;;;;5098812;28;20032;-77
2022/08/02 11:03:58;;;;;;;9.90;6.45;;;26.30;92.90;;;;;;5090404;28;20032;-77
2022/08/02 11:06:24;;;;;;;9.65;6.05;;;26.40;92.70;;;;;;5099319;28;20013;-76
2022/08/02 11:08:50;;;;;;;14.15;6.78;;;26.50;91.90;;;;;;5098890;28;20028;-77
2022/08/02 11:11:17;;;;;;;14.05;6.90;;;26.50;92.00;;;;;;5099015;28;20025;-77
2022/08/02 11:14:07;;;;;;;11.85;7.05;;;26.40;92.10;;;;;;5098947;28;20131;-77
2022/08/02 11:16:54;;;;;;;9.70;6.82;;;26.40;92.00;;;;;;5092992;28;20029;-77
2022/08/02 11:19:21;;;;;;;11.10;6.63;;;26.40;91.90;;;;;;5076840;28;20028;-76
2022/08/02 11:22:04;;;;;;;11.40;5.90;;;26.30;92.40;;;;;;5094299;28;20068;-77
2022/08/02 11:24:32;;;;;;;13.82;7.03;;;26.30;92.60;;;;;;5096462;28;20025;-77
2022/08/02 11:27:03;;;;;;;9.38;6.72;;;26.40;92.70;;;;;;5098622;28;20557;-76
2022/08/02 11:29:40;;;;;;;10.10;6.15;;;26.40;92.60;;;;;;5098596;28;20032;-76
2022/08/02 11:32:08;;;;;;;10.73;6.45;;;26.40;92.80;;;;;;5097359;28;20028;-77
2022/08/02 11:34:33;;;;;;;11.15;7.43;;;26.40;93.00;;;;;;5081327;28;20035;-77
2022/08/02 11:36:59;;;;;;;12.07;5.95;;;26.40;92.90;;;;;;5098597;28;20068;-77
2022/08/02 11:39:25;;;;;;;9.43;5.20;;;26.40;92.90;;;;;;5098501;28;20055;-77
2022/08/02 11:41:56;;;;;;;8.65;4.72;;;26.40;93.20;;;;;;5098465;28;20016;-77
2022/08/02 11:44:23;;;;;;;9.52;6.18;;;26.50;92.90;;;;;;5098155;28;20004;-77
2022/08/02 11:47:05;;;;;;;10.00;5.20;;;26.60;92.30;;;;;;5098228;28;20096;-77
2022/08/02 11:49:32;;;;;;;9.13;4.28;;;26.60;91.70;;;;;;5097982;28;20036;-77
2022/08/02 11:52:03;;;;;;;6.82;3.95;;;26.60;91.90;;;;;;5098339;28;20080;-77
2022/08/02 11:54:35;;;;;;;8.75;3.40;;;26.70;91.30;;;;;;5089232;28;20024;-77
2022/08/02 11:57:18;;;;;;;8.05;3.53;;;26.70;90.00;;;;;;5085245;28;20066;-76
2022/08/02 11:59:46;;;;;;;5.80;3.20;;;26.70;89.90;;;;;;5097210;28;20031;-76
2022/08/02 12:02:12;;;;;;;7.70;3.10;;;26.80;88.30;;;;;;5097800;28;20004;-77
2022/08/02 12:04:38;;;;;;;4.00;2.60;;;26.80;88.10;;;;;;5097827;28;20085;-77
2022/08/02 12:07:05;;;;;;;4.50;2.70;;;26.90;86.10;;;;;;5088745;28;20025;-77
2022/08/02 12:09:33;;;;;;;3.85;2.58;;;27.00;84.80;;;;;;5092326;28;20024;-77
2022/08/02 12:11:59;;;;;;;5.03;2.63;;;27.00;83.00;;;;;;5084744;28;20062;-76
2022/08/02 12:14:29;;;;;;;7.60;2.60;;;27.00;82.60;;;;;;5097672;28;20023;-77
2022/08/02 12:19:41;;;;;;;;;;;27.10;82.20;;;;;;5097870;28;20043;-77
2022/08/02 12:22:14;;;;;;;6.05;2.78;;;27.10;82.10;;;;;;5095539;28;19919;-77
2022/08/02 12:24:41;;;;;;;7.40;3.17;;;27.10;82.00;;;;;;5097600;28;20059;-77
2022/08/02 12:27:07;;;;;;;6.93;2.30;;;27.20;81.50;;;;;;5097682;28;20008;-77
2022/08/02 12:29:38;;;;;;;5.95;2.63;;;27.30;81.50;;;;;;5079391;28;20032;-77
2022/08/02 12:32:05;;;;;;;4.88;2.40;;;27.40;80.90;;;;;;5097266;28;20015;-77
2022/08/02 12:34:32;;;;;;;8.18;2.80;;;27.50;80.50;;;;;;5096690;28;20017;-78
2022/08/02 12:37:04;;;;;;;7.13;2.60;;;27.50;80.90;;;;;;5097377;28;20031;-77
2022/08/02 12:39:41;;;;;;;7.50;2.53;;;27.60;81.20;;;;;;5097148;28;20016;-77
2022/08/02 12:42:09;;;;;;;9.80;2.30;;;27.80;80.40;;;;;;5097171;28;20084;-76
2022/08/02 12:44:37;;;;;;;7.93;2.40;;;27.80;80.30;;;;;;5096595;28;20019;-78
2022/08/02 12:47:09;;;;;;;8.35;1.95;;;27.90;80.50;;;;;;5097104;28;20039;-76
2022/08/02 12:49:35;;;;;;;4.82;1.90;;;27.90;81.20;;;;;;5096712;28;20020;-77
2022/08/02 12:52:01;;;;;;;6.22;2.33;;;28.00;81.90;;;;;;5097060;28;20120;-77
2022/08/02 12:54:38;;;;;;;7.32;2.20;;;28.10;81.70;;;;;;5094295;28;20041;-77